Harlow, United Kingdom
Current Conditions -  °F | °C
As of 9:50 AM on Tuesday 21 Oct 2014 (Local Time) from EGSS Reporting Station
Moderate Rain Moderate Rain  
Wind Chill: 57°   Ceiling: 1300
Heat Index: 57°   Visibility: 3mi
Dew Point: 50°   Wind: 20mph
Humidity: 77%   Direction: 270°W
Pressure: 29.53"   Gusts: 36mph
Location:  51.78°N, 0.11°E
Report Text: EGSS 210850Z 27017G31KT 240V300 5000 RA BKN013 BKN022 14/10 Q1000
Loading
Personal Weather Stations






























Interactive Weather Map
Tropical Storm Tracking
New forecast layout! Learn more

10-Day Weather Forecast

Advertisements
Track Severe Weather on mobile